sensor_id;sensor_type;location;lat;lon;timestamp;P1;durP1;ratioP1;P2;durP2;ratioP2
29712;SDS011;16623;53.632;10.016;2022-10-30T00:01:58;36.03;;;16.70;;
29712;SDS011;16623;53.632;10.016;2022-10-30T00:04:24;27.92;;;15.90;;
29712;SDS011;16623;53.632;10.016;2022-10-30T00:06:49;32.53;;;17.83;;
29712;SDS011;16623;53.632;10.016;2022-10-30T00:09:15;36.35;;;17.98;;
29712;SDS011;16623;53.632;10.016;2022-10-30T00:11:40;33.47;;;15.48;;
29712;SDS011;16623;53.632;10.016;2022-10-30T00:14:06;26.33;;;15.10;;
29712;SDS011;16623;53.632;10.016;2022-10-30T00:16:32;30.73;;;15.65;;
29712;SDS011;16623;53.632;10.016;2022-10-30T00:18:58;36.13;;;17.85;;
29712;SDS011;16623;53.632;10.016;2022-10-30T00:21:23;33.75;;;16.58;;
29712;SDS011;16623;53.632;10.016;2022-10-30T00:23:50;32.85;;;15.00;;
29712;SDS011;16623;53.632;10.016;2022-10-30T00:26:18;27.40;;;15.00;;
29712;SDS011;16623;53.632;10.016;2022-10-30T00:28:53;26.00;;;14.35;;
29712;SDS011;16623;53.632;10.016;2022-10-30T00:31:19;31.95;;;15.45;;
29712;SDS011;16623;53.632;10.016;2022-10-30T00:33:51;31.25;;;15.48;;
29712;SDS011;16623;53.632;10.016;2022-10-30T00:36:19;37.90;;;16.58;;
29712;SDS011;16623;53.632;10.016;2022-10-30T00:38:45;26.27;;;15.77;;
29712;SDS011;16623;53.632;10.016;2022-10-30T00:41:19;36.90;;;16.27;;
29712;SDS011;16623;53.632;10.016;2022-10-30T00:43:47;34.22;;;16.63;;
29712;SDS011;16623;53.632;10.016;2022-10-30T00:46:15;30.65;;;15.70;;
29712;SDS011;16623;53.632;10.016;2022-10-30T00:48:51;34.80;;;17.90;;
29712;SDS011;16623;53.632;10.016;2022-10-30T00:51:21;32.75;;;15.07;;
29712;SDS011;16623;53.632;10.016;2022-10-30T00:53:47;33.50;;;14.55;;
29712;SDS011;16623;53.632;10.016;2022-10-30T00:56:14;26.67;;;14.20;;
29712;SDS011;16623;53.632;10.016;2022-10-30T00:58:43;33.10;;;14.90;;
29712;SDS011;16623;53.632;10.016;2022-10-30T01:01:15;35.33;;;15.38;;
29712;SDS011;16623;53.632;10.016;2022-10-30T01:03:43;30.63;;;14.70;;
29712;SDS011;16623;53.632;10.016;2022-10-30T01:06:11;33.20;;;14.30;;
29712;SDS011;16623;53.632;10.016;2022-10-30T01:08:39;30.80;;;16.75;;
29712;SDS011;16623;53.632;10.016;2022-10-30T01:11:05;31.23;;;14.35;;
29712;SDS011;16623;53.632;10.016;2022-10-30T01:13:33;33.53;;;14.15;;
29712;SDS011;16623;53.632;10.016;2022-10-30T01:18:56;40.00;;;14.77;;
29712;SDS011;16623;53.632;10.016;2022-10-30T01:21:48;26.67;;;14.90;;
29712;SDS011;16623;53.632;10.016;2022-10-30T01:27:12;28.55;;;15.82;;
29712;SDS011;16623;53.632;10.016;2022-10-30T01:30:28;37.50;;;15.90;;
29712;SDS011;16623;53.632;10.016;2022-10-30T01:40:53;28.95;;;14.30;;
29712;SDS011;16623;53.632;10.016;2022-10-30T01:43:18;31.30;;;14.65;;
29712;SDS011;16623;53.632;10.016;2022-10-30T01:56:37;29.75;;;14.95;;
29712;SDS011;16623;53.632;10.016;2022-10-30T02:01:46;26.25;;;13.27;;
29712;SDS011;16623;53.632;10.016;2022-10-30T02:04:13;26.73;;;13.05;;
29712;SDS011;16623;53.632;10.016;2022-10-30T02:06:39;31.10;;;14.82;;
29712;SDS011;16623;53.632;10.016;2022-10-30T02:09:05;35.38;;;13.85;;
29712;SDS011;16623;53.632;10.016;2022-10-30T02:11:31;34.33;;;16.25;;
29712;SDS011;16623;53.632;10.016;2022-10-30T02:13:59;22.05;;;12.05;;
29712;SDS011;16623;53.632;10.016;2022-10-30T02:16:27;25.58;;;13.85;;
29712;SDS011;16623;53.632;10.016;2022-10-30T02:18:52;38.80;;;13.93;;
29712;SDS011;16623;53.632;10.016;2022-10-30T02:21:18;27.75;;;14.43;;
29712;SDS011;16623;53.632;10.016;2022-10-30T02:23:44;23.50;;;13.20;;
29712;SDS011;16623;53.632;10.016;2022-10-30T02:26:10;26.10;;;13.13;;
29712;SDS011;16623;53.632;10.016;2022-10-30T02:28:35;24.02;;;13.35;;
29712;SDS011;16623;53.632;10.016;2022-10-30T02:31:01;27.27;;;13.40;;
29712;SDS011;16623;53.632;10.016;2022-10-30T02:33:26;26.85;;;12.90;;
29712;SDS011;16623;53.632;10.016;2022-10-30T02:35:52;23.30;;;12.73;;
29712;SDS011;16623;53.632;10.016;2022-10-30T02:38:18;34.40;;;13.43;;
29712;SDS011;16623;53.632;10.016;2022-10-30T02:40:44;24.98;;;12.77;;
29712;SDS011;16623;53.632;10.016;2022-10-30T02:43:09;23.70;;;12.55;;
29712;SDS011;16623;53.632;10.016;2022-10-30T02:45:35;27.13;;;13.20;;
29712;SDS011;16623;53.632;10.016;2022-10-30T02:48:00;30.50;;;12.93;;
29712;SDS011;16623;53.632;10.016;2022-10-30T02:50:26;27.80;;;14.00;;
29712;SDS011;16623;53.632;10.016;2022-10-30T02:52:51;25.52;;;12.73;;
29712;SDS011;16623;53.632;10.016;2022-10-30T02:55:17;24.15;;;13.07;;
29712;SDS011;16623;53.632;10.016;2022-10-30T02:57:43;32.53;;;13.38;;
29712;SDS011;16623;53.632;10.016;2022-10-30T03:00:09;23.45;;;12.85;;
29712;SDS011;16623;53.632;10.016;2022-10-30T03:02:36;23.50;;;13.27;;
29712;SDS011;16623;53.632;10.016;2022-10-30T03:05:01;29.33;;;13.30;;
29712;SDS011;16623;53.632;10.016;2022-10-30T03:07:27;25.92;;;12.27;;
29712;SDS011;16623;53.632;10.016;2022-10-30T03:09:53;31.35;;;13.23;;
29712;SDS011;16623;53.632;10.016;2022-10-30T03:12:19;24.65;;;13.43;;
29712;SDS011;16623;53.632;10.016;2022-10-30T03:14:46;23.38;;;11.70;;
29712;SDS011;16623;53.632;10.016;2022-10-30T03:17:11;19.50;;;11.73;;
29712;SDS011;16623;53.632;10.016;2022-10-30T03:19:37;22.88;;;11.88;;
29712;SDS011;16623;53.632;10.016;2022-10-30T03:22:02;19.90;;;11.60;;
29712;SDS011;16623;53.632;10.016;2022-10-30T03:24:28;26.70;;;12.32;;
29712;SDS011;16623;53.632;10.016;2022-10-30T03:26:53;22.80;;;11.13;;
29712;SDS011;16623;53.632;10.016;2022-10-30T03:29:19;22.55;;;12.00;;
29712;SDS011;16623;53.632;10.016;2022-10-30T03:31:45;36.17;;;13.63;;
29712;SDS011;16623;53.632;10.016;2022-10-30T03:34:10;23.65;;;13.88;;
29712;SDS011;16623;53.632;10.016;2022-10-30T03:36:36;22.67;;;12.07;;
29712;SDS011;16623;53.632;10.016;2022-10-30T03:39:02;20.08;;;11.55;;
29712;SDS011;16623;53.632;10.016;2022-10-30T03:41:28;32.35;;;12.77;;
29712;SDS011;16623;53.632;10.016;2022-10-30T03:43:54;25.52;;;14.40;;
29712;SDS011;16623;53.632;10.016;2022-10-30T03:46:19;21.83;;;11.45;;
29712;SDS011;16623;53.632;10.016;2022-10-30T03:48:47;19.50;;;11.93;;
29712;SDS011;16623;53.632;10.016;2022-10-30T03:51:13;21.95;;;11.27;;
29712;SDS011;16623;53.632;10.016;2022-10-30T03:53:39;22.92;;;11.60;;
29712;SDS011;16623;53.632;10.016;2022-10-30T03:56:05;23.27;;;12.38;;
29712;SDS011;16623;53.632;10.016;2022-10-30T03:58:31;21.77;;;12.00;;
29712;SDS011;16623;53.632;10.016;2022-10-30T04:01:02;31.05;;;12.23;;
29712;SDS011;16623;53.632;10.016;2022-10-30T04:03:29;21.05;;;12.27;;
29712;SDS011;16623;53.632;10.016;2022-10-30T04:05:56;26.50;;;12.27;;
29712;SDS011;16623;53.632;10.016;2022-10-30T04:08:22;29.27;;;12.60;;
29712;SDS011;16623;53.632;10.016;2022-10-30T04:10:48;24.00;;;12.60;;
29712;SDS011;16623;53.632;10.016;2022-10-30T04:13:14;15.70;;;10.98;;
29712;SDS011;16623;53.632;10.016;2022-10-30T04:15:40;22.52;;;12.38;;
29712;SDS011;16623;53.632;10.016;2022-10-30T04:18:06;23.55;;;11.38;;
29712;SDS011;16623;53.632;10.016;2022-10-30T04:20:35;22.90;;;11.75;;
29712;SDS011;16623;53.632;10.016;2022-10-30T04:23:04;31.95;;;11.23;;
29712;SDS011;16623;53.632;10.016;2022-10-30T04:25:34;25.98;;;12.77;;
29712;SDS011;16623;53.632;10.016;2022-10-30T04:28:00;24.05;;;12.20;;
29712;SDS011;16623;53.632;10.016;2022-10-30T04:30:26;22.23;;;13.18;;
29712;SDS011;16623;53.632;10.016;2022-10-30T04:32:55;27.23;;;12.43;;
29712;SDS011;16623;53.632;10.016;2022-10-30T04:35:22;19.70;;;11.45;;
29712;SDS011;16623;53.632;10.016;2022-10-30T04:37:52;26.15;;;11.25;;
29712;SDS011;16623;53.632;10.016;2022-10-30T04:40:19;24.10;;;11.02;;
29712;SDS011;16623;53.632;10.016;2022-10-30T04:42:48;27.88;;;13.15;;
29712;SDS011;16623;53.632;10.016;2022-10-30T04:45:14;25.42;;;11.85;;
29712;SDS011;16623;53.632;10.016;2022-10-30T04:47:40;28.73;;;12.70;;
29712;SDS011;16623;53.632;10.016;2022-10-30T04:50:06;21.35;;;10.82;;
29712;SDS011;16623;53.632;10.016;2022-10-30T04:52:32;21.70;;;11.32;;
29712;SDS011;16623;53.632;10.016;2022-10-30T04:54:58;26.08;;;12.05;;
29712;SDS011;16623;53.632;10.016;2022-10-30T04:57:23;22.17;;;11.75;;
29712;SDS011;16623;53.632;10.016;2022-10-30T04:59:49;26.30;;;11.02;;
29712;SDS011;16623;53.632;10.016;2022-10-30T05:02:14;21.30;;;11.80;;
29712;SDS011;16623;53.632;10.016;2022-10-30T05:04:44;31.50;;;11.00;;
29712;SDS011;16623;53.632;10.016;2022-10-30T05:07:10;31.58;;;14.05;;
29712;SDS011;16623;53.632;10.016;2022-10-30T05:09:37;28.13;;;11.23;;
29712;SDS011;16623;53.632;10.016;2022-10-30T05:12:02;19.70;;;9.68;;
29712;SDS011;16623;53.632;10.016;2022-10-30T05:14:31;23.80;;;11.80;;
29712;SDS011;16623;53.632;10.016;2022-10-30T05:16:57;25.60;;;11.48;;
29712;SDS011;16623;53.632;10.016;2022-10-30T05:19:23;22.15;;;11.35;;
29712;SDS011;16623;53.632;10.016;2022-10-30T05:21:49;23.08;;;11.02;;
29712;SDS011;16623;53.632;10.016;2022-10-30T05:24:15;34.70;;;11.55;;
29712;SDS011;16623;53.632;10.016;2022-10-30T05:26:41;22.92;;;10.40;;
29712;SDS011;16623;53.632;10.016;2022-10-30T05:29:15;25.27;;;11.13;;
29712;SDS011;16623;53.632;10.016;2022-10-30T05:31:40;29.58;;;12.73;;
29712;SDS011;16623;53.632;10.016;2022-10-30T05:34:06;22.05;;;11.85;;
29712;SDS011;16623;53.632;10.016;2022-10-30T05:36:31;23.25;;;11.25;;
29712;SDS011;16623;53.632;10.016;2022-10-30T05:38:57;21.17;;;10.77;;
29712;SDS011;16623;53.632;10.016;2022-10-30T05:41:22;23.08;;;12.05;;
29712;SDS011;16623;53.632;10.016;2022-10-30T05:43:48;34.03;;;12.18;;
29712;SDS011;16623;53.632;10.016;2022-10-30T05:46:13;20.80;;;10.95;;
29712;SDS011;16623;53.632;10.016;2022-10-30T05:48:39;21.00;;;11.38;;
29712;SDS011;16623;53.632;10.016;2022-10-30T05:51:04;20.55;;;10.43;;
29712;SDS011;16623;53.632;10.016;2022-10-30T05:53:32;19.77;;;11.25;;
29712;SDS011;16623;53.632;10.016;2022-10-30T05:55:58;20.80;;;11.32;;
29712;SDS011;16623;53.632;10.016;2022-10-30T05:58:24;19.13;;;11.25;;
29712;SDS011;16623;53.632;10.016;2022-10-30T06:00:50;24.05;;;11.02;;
29712;SDS011;16623;53.632;10.016;2022-10-30T06:03:16;17.55;;;9.02;;
29712;SDS011;16623;53.632;10.016;2022-10-30T06:05:43;18.13;;;10.07;;
29712;SDS011;16623;53.632;10.016;2022-10-30T06:08:09;17.08;;;10.55;;
29712;SDS011;16623;53.632;10.016;2022-10-30T06:10:35;18.98;;;9.10;;
29712;SDS011;16623;53.632;10.016;2022-10-30T06:13:02;16.67;;;10.30;;
29712;SDS011;16623;53.632;10.016;2022-10-30T06:15:29;21.27;;;10.70;;
29712;SDS011;16623;53.632;10.016;2022-10-30T06:17:55;24.50;;;11.65;;
29712;SDS011;16623;53.632;10.016;2022-10-30T06:20:23;19.65;;;11.27;;
29712;SDS011;16623;53.632;10.016;2022-10-30T06:22:53;25.90;;;10.80;;
29712;SDS011;16623;53.632;10.016;2022-10-30T06:25:19;22.30;;;10.80;;
29712;SDS011;16623;53.632;10.016;2022-10-30T06:27:45;20.08;;;11.77;;
29712;SDS011;16623;53.632;10.016;2022-10-30T06:30:11;27.73;;;11.75;;
29712;SDS011;16623;53.632;10.016;2022-10-30T06:32:36;24.52;;;11.73;;
29712;SDS011;16623;53.632;10.016;2022-10-30T06:35:02;27.60;;;11.07;;
29712;SDS011;16623;53.632;10.016;2022-10-30T06:37:27;22.42;;;11.10;;
29712;SDS011;16623;53.632;10.016;2022-10-30T06:39:54;18.10;;;9.90;;
29712;SDS011;16623;53.632;10.016;2022-10-30T06:42:20;26.70;;;10.60;;
29712;SDS011;16623;53.632;10.016;2022-10-30T06:44:45;19.58;;;10.75;;
29712;SDS011;16623;53.632;10.016;2022-10-30T06:47:12;19.83;;;10.93;;
29712;SDS011;16623;53.632;10.016;2022-10-30T06:49:38;26.25;;;12.35;;
29712;SDS011;16623;53.632;10.016;2022-10-30T06:52:04;23.50;;;10.27;;
29712;SDS011;16623;53.632;10.016;2022-10-30T06:54:29;24.23;;;10.23;;
29712;SDS011;16623;53.632;10.016;2022-10-30T06:56:55;20.75;;;10.73;;
29712;SDS011;16623;53.632;10.016;2022-10-30T06:59:20;20.95;;;11.10;;
29712;SDS011;16623;53.632;10.016;2022-10-30T07:01:46;29.13;;;10.52;;
29712;SDS011;16623;53.632;10.016;2022-10-30T07:04:16;17.30;;;9.70;;
29712;SDS011;16623;53.632;10.016;2022-10-30T07:06:42;20.92;;;10.25;;
29712;SDS011;16623;53.632;10.016;2022-10-30T07:09:07;27.48;;;10.63;;
29712;SDS011;16623;53.632;10.016;2022-10-30T07:11:33;18.80;;;10.23;;
29712;SDS011;16623;53.632;10.016;2022-10-30T07:13:58;25.75;;;10.60;;
29712;SDS011;16623;53.632;10.016;2022-10-30T07:16:24;28.48;;;11.05;;
29712;SDS011;16623;53.632;10.016;2022-10-30T07:18:50;24.33;;;10.85;;
29712;SDS011;16623;53.632;10.016;2022-10-30T07:21:15;24.10;;;11.05;;
29712;SDS011;16623;53.632;10.016;2022-10-30T07:23:41;22.00;;;9.68;;
29712;SDS011;16623;53.632;10.016;2022-10-30T07:26:06;21.30;;;9.57;;
29712;SDS011;16623;53.632;10.016;2022-10-30T07:28:32;24.48;;;11.65;;
29712;SDS011;16623;53.632;10.016;2022-10-30T07:30:58;20.85;;;10.65;;
29712;SDS011;16623;53.632;10.016;2022-10-30T07:33:24;19.42;;;10.63;;
29712;SDS011;16623;53.632;10.016;2022-10-30T07:35:49;20.80;;;10.57;;
29712;SDS011;16623;53.632;10.016;2022-10-30T07:38:15;18.70;;;12.45;;
29712;SDS011;16623;53.632;10.016;2022-10-30T07:40:42;26.55;;;11.50;;
29712;SDS011;16623;53.632;10.016;2022-10-30T07:43:08;20.02;;;10.88;;
29712;SDS011;16623;53.632;10.016;2022-10-30T07:45:37;20.48;;;9.65;;
29712;SDS011;16623;53.632;10.016;2022-10-30T07:48:06;23.30;;;11.32;;
29712;SDS011;16623;53.632;10.016;2022-10-30T07:50:31;19.05;;;10.50;;
29712;SDS011;16623;53.632;10.016;2022-10-30T07:52:57;29.90;;;9.90;;
29712;SDS011;16623;53.632;10.016;2022-10-30T07:55:22;26.60;;;11.23;;
29712;SDS011;16623;53.632;10.016;2022-10-30T07:57:48;24.23;;;10.38;;
29712;SDS011;16623;53.632;10.016;2022-10-30T08:00:14;25.55;;;11.57;;
29712;SDS011;16623;53.632;10.016;2022-10-30T08:02:41;21.95;;;11.77;;
29712;SDS011;16623;53.632;10.016;2022-10-30T08:05:06;30.27;;;11.05;;
29712;SDS011;16623;53.632;10.016;2022-10-30T08:07:35;22.73;;;11.50;;
29712;SDS011;16623;53.632;10.016;2022-10-30T08:10:02;19.67;;;10.70;;
29712;SDS011;16623;53.632;10.016;2022-10-30T08:12:31;24.80;;;11.25;;
29712;SDS011;16623;53.632;10.016;2022-10-30T08:14:57;23.27;;;10.65;;
29712;SDS011;16623;53.632;10.016;2022-10-30T08:17:22;17.48;;;11.20;;
29712;SDS011;16623;53.632;10.016;2022-10-30T08:19:48;27.83;;;11.13;;
29712;SDS011;16623;53.632;10.016;2022-10-30T08:22:14;23.00;;;11.38;;
29712;SDS011;16623;53.632;10.016;2022-10-30T08:24:40;20.80;;;11.95;;
29712;SDS011;16623;53.632;10.016;2022-10-30T08:27:05;24.00;;;12.43;;
29712;SDS011;16623;53.632;10.016;2022-10-30T08:29:31;20.92;;;12.15;;
29712;SDS011;16623;53.632;10.016;2022-10-30T08:31:58;24.60;;;12.23;;
29712;SDS011;16623;53.632;10.016;2022-10-30T08:34:24;25.10;;;11.88;;
29712;SDS011;16623;53.632;10.016;2022-10-30T08:36:51;24.67;;;11.57;;
29712;SDS011;16623;53.632;10.016;2022-10-30T08:39:17;21.65;;;11.48;;
29712;SDS011;16623;53.632;10.016;2022-10-30T08:41:44;26.48;;;12.00;;
29712;SDS011;16623;53.632;10.016;2022-10-30T08:44:09;27.02;;;11.95;;
29712;SDS011;16623;53.632;10.016;2022-10-30T08:46:35;28.73;;;12.32;;
29712;SDS011;16623;53.632;10.016;2022-10-30T08:49:01;27.45;;;12.20;;
29712;SDS011;16623;53.632;10.016;2022-10-30T08:51:26;27.48;;;11.50;;
29712;SDS011;16623;53.632;10.016;2022-10-30T08:53:56;22.27;;;11.07;;
29712;SDS011;16623;53.632;10.016;2022-10-30T08:56:21;21.40;;;10.52;;
29712;SDS011;16623;53.632;10.016;2022-10-30T08:58:47;26.98;;;11.45;;
29712;SDS011;16623;53.632;10.016;2022-10-30T09:01:14;20.88;;;12.15;;
29712;SDS011;16623;53.632;10.016;2022-10-30T09:03:42;17.85;;;10.07;;
29712;SDS011;16623;53.632;10.016;2022-10-30T09:06:08;31.33;;;12.23;;
29712;SDS011;16623;53.632;10.016;2022-10-30T09:08:34;23.42;;;10.88;;
29712;SDS011;16623;53.632;10.016;2022-10-30T09:11:00;21.23;;;9.45;;
29712;SDS011;16623;53.632;10.016;2022-10-30T09:13:26;26.00;;;10.43;;
29712;SDS011;16623;53.632;10.016;2022-10-30T09:15:52;20.13;;;10.93;;
29712;SDS011;16623;53.632;10.016;2022-10-30T09:18:17;22.27;;;10.48;;
29712;SDS011;16623;53.632;10.016;2022-10-30T09:20:43;21.48;;;9.57;;
29712;SDS011;16623;53.632;10.016;2022-10-30T09:23:09;23.75;;;10.70;;
29712;SDS011;16623;53.632;10.016;2022-10-30T09:25:35;23.77;;;10.10;;
29712;SDS011;16623;53.632;10.016;2022-10-30T09:28:00;22.85;;;9.70;;
29712;SDS011;16623;53.632;10.016;2022-10-30T09:30:26;24.67;;;10.45;;
29712;SDS011;16623;53.632;10.016;2022-10-30T09:32:58;27.67;;;10.10;;
29712;SDS011;16623;53.632;10.016;2022-10-30T09:35:26;19.13;;;10.00;;
29712;SDS011;16623;53.632;10.016;2022-10-30T09:37:54;25.02;;;10.50;;
29712;SDS011;16623;53.632;10.016;2022-10-30T09:43:17;23.95;;;9.10;;
29712;SDS011;16623;53.632;10.016;2022-10-30T09:45:55;27.90;;;11.35;;
29712;SDS011;16623;53.632;10.016;2022-10-30T09:54:04;26.50;;;10.15;;
29712;SDS011;16623;53.632;10.016;2022-10-30T09:56:42;28.08;;;9.57;;
29712;SDS011;16623;53.632;10.016;2022-10-30T09:59:20;23.25;;;9.57;;
29712;SDS011;16623;53.632;10.016;2022-10-30T10:02:29;28.88;;;10.00;;
29712;SDS011;16623;53.632;10.016;2022-10-30T10:05:25;27.60;;;10.23;;
29712;SDS011;16623;53.632;10.016;2022-10-30T10:08:16;24.75;;;10.25;;
29712;SDS011;16623;53.632;10.016;2022-10-30T10:10:45;26.65;;;9.50;;
29712;SDS011;16623;53.632;10.016;2022-10-30T10:13:29;24.60;;;8.80;;
29712;SDS011;16623;53.632;10.016;2022-10-30T10:16:16;29.27;;;9.40;;
29712;SDS011;16623;53.632;10.016;2022-10-30T10:18:51;17.40;;;8.85;;
29712;SDS011;16623;53.632;10.016;2022-10-30T10:21:28;24.85;;;9.07;;
29712;SDS011;16623;53.632;10.016;2022-10-30T10:23:59;28.33;;;9.05;;
29712;SDS011;16623;53.632;10.016;2022-10-30T10:29:08;19.90;;;9.65;;
29712;SDS011;16623;53.632;10.016;2022-10-30T10:35:09;31.25;;;9.00;;
29712;SDS011;16623;53.632;10.016;2022-10-30T10:38:24;22.52;;;8.80;;
29712;SDS011;16623;53.632;10.016;2022-10-30T10:40:53;23.92;;;9.80;;
29712;SDS011;16623;53.632;10.016;2022-10-30T10:52:29;22.27;;;8.85;;
29712;SDS011;16623;53.632;10.016;2022-10-30T10:55:11;19.70;;;8.77;;
29712;SDS011;16623;53.632;10.016;2022-10-30T10:57:43;22.67;;;9.25;;
29712;SDS011;16623;53.632;10.016;2022-10-30T11:02:55;29.27;;;11.35;;
29712;SDS011;16623;53.632;10.016;2022-10-30T11:05:32;31.03;;;9.77;;
29712;SDS011;16623;53.632;10.016;2022-10-30T11:10:34;24.10;;;9.40;;
29712;SDS011;16623;53.632;10.016;2022-10-30T11:13:00;25.65;;;11.48;;
29712;SDS011;16623;53.632;10.016;2022-10-30T11:15:39;24.48;;;9.13;;
29712;SDS011;16623;53.632;10.016;2022-10-30T11:18:09;32.33;;;9.38;;
29712;SDS011;16623;53.632;10.016;2022-10-30T11:23:47;22.55;;;8.45;;
29712;SDS011;16623;53.632;10.016;2022-10-30T11:28:44;25.90;;;9.35;;
29712;SDS011;16623;53.632;10.016;2022-10-30T11:31:35;23.48;;;9.00;;
29712;SDS011;16623;53.632;10.016;2022-10-30T11:34:12;28.83;;;9.35;;
29712;SDS011;16623;53.632;10.016;2022-10-30T11:36:38;27.30;;;9.82;;
29712;SDS011;16623;53.632;10.016;2022-10-30T11:39:16;19.17;;;8.60;;
29712;SDS011;16623;53.632;10.016;2022-10-30T11:41:45;24.80;;;9.40;;
29712;SDS011;16623;53.632;10.016;2022-10-30T11:44:25;22.63;;;8.63;;
29712;SDS011;16623;53.632;10.016;2022-10-30T11:47:02;20.63;;;8.38;;
29712;SDS011;16623;53.632;10.016;2022-10-30T11:49:38;30.02;;;9.00;;
29712;SDS011;16623;53.632;10.016;2022-10-30T11:52:25;25.52;;;8.13;;
29712;SDS011;16623;53.632;10.016;2022-10-30T11:54:52;22.38;;;7.95;;
29712;SDS011;16623;53.632;10.016;2022-10-30T11:57:22;27.38;;;9.43;;
29712;SDS011;16623;53.632;10.016;2022-10-30T11:59:48;17.23;;;8.23;;
29712;SDS011;16623;53.632;10.016;2022-10-30T12:02:26;21.88;;;9.13;;
29712;SDS011;16623;53.632;10.016;2022-10-30T12:04:55;20.05;;;8.60;;
29712;SDS011;16623;53.632;10.016;2022-10-30T12:07:26;28.30;;;9.18;;
29712;SDS011;16623;53.632;10.016;2022-10-30T12:09:56;24.95;;;9.20;;
29712;SDS011;16623;53.632;10.016;2022-10-30T12:12:25;20.40;;;7.70;;
29712;SDS011;16623;53.632;10.016;2022-10-30T12:17:37;23.88;;;11.23;;
29712;SDS011;16623;53.632;10.016;2022-10-30T12:20:04;27.58;;;9.02;;
29712;SDS011;16623;53.632;10.016;2022-10-30T12:22:32;26.40;;;8.13;;
29712;SDS011;16623;53.632;10.016;2022-10-30T12:24:59;25.75;;;9.27;;
29712;SDS011;16623;53.632;10.016;2022-10-30T12:27:28;21.67;;;7.95;;
29712;SDS011;16623;53.632;10.016;2022-10-30T12:32:48;17.63;;;8.02;;
29712;SDS011;16623;53.632;10.016;2022-10-30T12:35:33;17.65;;;7.57;;
29712;SDS011;16623;53.632;10.016;2022-10-30T12:38:50;21.13;;;8.40;;
29712;SDS011;16623;53.632;10.016;2022-10-30T12:41:03;19.13;;;7.10;;
29712;SDS011;16623;53.632;10.016;2022-10-30T12:43:55;19.42;;;8.13;;
29712;SDS011;16623;53.632;10.016;2022-10-30T12:46:37;24.85;;;7.70;;
